createdAt,value
2023-06-19T00:01:07.688Z,53.88
2023-06-19T00:03:34.604Z,53.69
2023-06-19T00:06:01.367Z,53.89
2023-06-19T00:08:28.351Z,53.91
2023-06-19T00:10:56.223Z,53.92
2023-06-19T00:13:23.075Z,54.05
2023-06-19T00:15:51.544Z,53.95
2023-06-19T00:18:21.735Z,53.85
2023-06-19T00:20:49.183Z,53.79
2023-06-19T00:23:18.276Z,54.00
2023-06-19T00:25:46.298Z,54.04
2023-06-19T00:28:15.133Z,54.22
2023-06-19T00:30:42.857Z,54.42
2023-06-19T00:33:11.547Z,54.82
2023-06-19T00:35:40.268Z,54.64
2023-06-19T00:38:09.454Z,54.83
2023-06-19T00:40:36.543Z,54.73
2023-06-19T00:43:04.046Z,54.80
2023-06-19T00:45:31.178Z,55.02
2023-06-19T00:47:59.802Z,54.83
2023-06-19T00:50:27.434Z,55.07
2023-06-19T00:52:55.368Z,55.08
2023-06-19T00:55:23.202Z,55.25
2023-06-19T00:57:54.107Z,55.57
2023-06-19T01:00:21.094Z,55.83
2023-06-19T01:02:48.983Z,55.77
2023-06-19T01:05:17.719Z,56.19
2023-06-19T01:07:58.829Z,55.89
2023-06-19T01:10:41.545Z,56.36
2023-06-19T01:13:15.243Z,56.48
2023-06-19T01:15:43.370Z,56.48
2023-06-19T01:18:14.431Z,56.61
2023-06-19T01:20:41.529Z,56.53
2023-06-19T01:23:12.864Z,56.94
2023-06-19T01:25:40.853Z,57.48
2023-06-19T01:28:12.686Z,57.57
2023-06-19T01:30:43.467Z,58.03
2023-06-19T01:33:12.309Z,58.28
2023-06-19T01:35:43.311Z,58.44
2023-06-19T01:38:11.902Z,58.67
2023-06-19T01:40:39.288Z,58.83
2023-06-19T01:43:09.634Z,58.68
2023-06-19T01:45:38.088Z,58.86
2023-06-19T01:48:05.300Z,58.74
2023-06-19T01:50:32.137Z,58.69
2023-06-19T01:52:58.921Z,58.48
2023-06-19T01:55:25.705Z,58.30
2023-06-19T01:57:54.141Z,58.50
2023-06-19T02:00:21.042Z,58.57
2023-06-19T02:02:49.625Z,58.59
2023-06-19T02:05:16.580Z,58.58
2023-06-19T02:07:43.420Z,58.69
2023-06-19T02:10:11.555Z,58.87
2023-06-19T02:12:38.276Z,58.82
2023-06-19T02:15:05.846Z,58.88
2023-06-19T02:17:33.186Z,58.83
2023-06-19T02:19:59.946Z,58.94
2023-06-19T02:22:27.725Z,59.08
2023-06-19T02:24:54.604Z,58.99
2023-06-19T02:27:23.409Z,59.14
2023-06-19T02:29:50.185Z,59.29
2023-06-19T02:32:16.942Z,59.39
2023-06-19T02:34:43.842Z,59.48
2023-06-19T02:37:10.649Z,59.62
2023-06-19T02:39:37.382Z,59.62
2023-06-19T02:42:04.388Z,59.80
2023-06-19T02:44:31.443Z,59.75
2023-06-19T02:46:58.179Z,59.68
2023-06-19T02:49:26.109Z,59.83
2023-06-19T02:51:52.864Z,59.83
2023-06-19T02:54:19.610Z,59.79
2023-06-19T02:56:46.465Z,59.81
2023-06-19T02:59:13.229Z,59.99
2023-06-19T03:01:40.025Z,59.99
2023-06-19T03:04:07.602Z,60.07
2023-06-19T03:06:40.360Z,59.90
2023-06-19T03:09:13.695Z,60.09
2023-06-19T03:11:42.450Z,59.96
2023-06-19T03:14:12.206Z,60.12
2023-06-19T03:16:38.816Z,60.06
2023-06-19T03:19:05.562Z,59.89
2023-06-19T03:21:32.304Z,59.91
2023-06-19T03:23:59.190Z,59.91
2023-06-19T03:26:28.659Z,59.81
2023-06-19T03:28:55.585Z,59.82
2023-06-19T03:31:22.352Z,59.67
2023-06-19T03:33:49.161Z,59.54
2023-06-19T03:36:15.974Z,59.42
2023-06-19T03:38:42.729Z,59.33
2023-06-19T03:41:09.529Z,59.23
2023-06-19T03:43:36.298Z,59.01
2023-06-19T03:46:03.212Z,58.93
2023-06-19T03:48:30.064Z,58.75
2023-06-19T03:50:56.972Z,58.77
2023-06-19T03:53:23.903Z,58.52
2023-06-19T03:55:50.612Z,58.49
2023-06-19T03:58:17.375Z,58.34
2023-06-19T04:00:44.204Z,58.37
2023-06-19T04:03:11.193Z,57.91
2023-06-19T04:05:38.532Z,57.76
2023-06-19T04:08:06.648Z,57.54
2023-06-19T04:10:36.055Z,57.27
2023-06-19T04:13:04.052Z,57.05
2023-06-19T04:15:33.416Z,57.17
2023-06-19T04:18:02.184Z,56.61
2023-06-19T04:20:29.153Z,56.68
2023-06-19T04:22:55.949Z,56.41
2023-06-19T04:25:22.786Z,56.45
2023-06-19T04:27:50.089Z,55.94
2023-06-19T04:30:16.867Z,55.95
2023-06-19T04:32:43.689Z,55.60
2023-06-19T04:35:11.401Z,55.74
2023-06-19T04:37:38.480Z,55.58
2023-06-19T04:40:06.033Z,55.32
2023-06-19T04:42:34.171Z,54.87
2023-06-19T04:45:01.101Z,55.17
2023-06-19T04:47:36.308Z,55.01
2023-06-19T04:50:09.082Z,54.92
2023-06-19T04:52:36.148Z,54.81
2023-06-19T04:55:03.168Z,54.48
2023-06-19T04:57:29.937Z,54.01
2023-06-19T04:59:56.762Z,54.06
2023-06-19T05:02:33.749Z,53.66
2023-06-19T05:05:03.737Z,53.50
2023-06-19T05:07:34.285Z,53.21
2023-06-19T05:10:01.093Z,53.74
2023-06-19T05:12:27.885Z,54.12
2023-06-19T05:14:54.681Z,52.40
2023-06-19T05:17:21.771Z,49.89
2023-06-19T05:19:49.364Z,47.19
2023-06-19T05:22:16.357Z,45.04
2023-06-19T05:24:43.265Z,42.27
2023-06-19T05:27:10.773Z,39.57
2023-06-19T05:29:37.554Z,37.24
2023-06-19T05:32:04.758Z,35.16
2023-06-19T05:34:31.609Z,33.53
2023-06-19T05:37:02.030Z,31.76
2023-06-19T05:39:28.767Z,30.04
2023-06-19T05:41:56.404Z,28.01
2023-06-19T05:44:23.251Z,26.70
2023-06-19T05:46:50.280Z,26.11
2023-06-19T05:49:17.014Z,25.19
2023-06-19T05:51:45.368Z,24.37
2023-06-19T05:54:12.102Z,23.68
2023-06-19T05:56:41.034Z,22.79
2023-06-19T05:59:07.986Z,21.94
2023-06-19T06:01:34.828Z,21.65
2023-06-19T06:04:03.002Z,20.86
2023-06-19T06:06:29.832Z,19.78
2023-06-19T06:08:56.626Z,19.46
2023-06-19T06:11:26.406Z,18.63
2023-06-19T06:13:53.216Z,18.28
2023-06-19T06:16:20.082Z,17.49
2023-06-19T06:18:47.364Z,16.84
2023-06-19T06:21:14.428Z,16.86
2023-06-19T06:23:46.234Z,16.25
2023-06-19T06:26:13.189Z,15.48
2023-06-19T06:28:40.578Z,15.15
2023-06-19T06:31:07.819Z,15.06
2023-06-19T06:33:34.542Z,14.83
2023-06-19T06:36:01.296Z,14.55
2023-06-19T06:38:28.272Z,14.29
2023-06-19T06:40:55.430Z,14.07
2023-06-19T06:43:22.361Z,13.83
2023-06-19T06:45:49.317Z,13.56
2023-06-19T06:48:17.176Z,13.34
2023-06-19T06:50:44.634Z,12.96
2023-06-19T06:53:11.446Z,13.14
2023-06-19T06:55:38.254Z,13.19
2023-06-19T06:58:06.469Z,12.36
2023-06-19T07:00:34.402Z,12.32
2023-06-19T07:03:01.308Z,12.33
2023-06-19T07:05:30.214Z,11.63
2023-06-19T07:07:56.962Z,11.59
2023-06-19T07:10:24.549Z,11.93
2023-06-19T07:12:52.801Z,10.87
2023-06-19T07:15:19.982Z,10.76
2023-06-19T07:17:46.852Z,10.91
2023-06-19T07:20:14.056Z,11.13
2023-06-19T07:22:41.894Z,10.58
2023-06-19T07:25:09.602Z,10.14
2023-06-19T07:27:36.462Z,10.02
2023-06-19T07:30:03.360Z,10.37
2023-06-19T07:32:30.496Z,9.75
2023-06-19T07:34:57.422Z,9.62
2023-06-19T07:37:24.222Z,9.62
2023-06-19T07:39:52.385Z,8.71
2023-06-19T07:42:20.466Z,8.91
2023-06-19T07:44:47.754Z,9.02
2023-06-19T07:47:20.001Z,8.48
2023-06-19T07:49:47.008Z,8.92
2023-06-19T07:52:14.750Z,7.84
2023-06-19T07:54:58.784Z,8.03
2023-06-19T07:57:26.762Z,7.71
2023-06-19T07:59:55.490Z,7.85
2023-06-19T08:02:22.689Z,7.08
2023-06-19T08:04:49.792Z,7.55
2023-06-19T08:07:16.639Z,6.71
2023-06-19T08:09:43.421Z,6.40
2023-06-19T08:12:10.236Z,6.93
2023-06-19T08:14:36.997Z,7.21
2023-06-19T08:17:04.196Z,6.89
2023-06-19T08:19:30.964Z,6.34
2023-06-19T08:21:57.740Z,7.51
2023-06-19T08:24:24.644Z,6.65
2023-06-19T08:26:52.558Z,7.07
2023-06-19T08:29:20.132Z,6.67
2023-06-19T08:31:47.338Z,6.94
2023-06-19T08:34:14.212Z,7.13
2023-06-19T08:36:41.155Z,6.81
2023-06-19T08:39:09.470Z,7.19
2023-06-19T08:41:38.817Z,7.10
2023-06-19T08:44:06.886Z,6.90
2023-06-19T08:46:35.711Z,7.18
2023-06-19T08:49:02.851Z,6.77
2023-06-19T08:51:32.626Z,6.83
2023-06-19T08:54:07.820Z,7.52
2023-06-19T08:56:36.040Z,6.65
2023-06-19T08:59:13.688Z,7.45
2023-06-19T09:01:42.920Z,7.80
2023-06-19T09:04:14.473Z,8.14
2023-06-19T09:06:54.205Z,7.91
2023-06-19T09:09:22.517Z,8.69
2023-06-19T09:11:58.453Z,8.33
2023-06-19T09:14:35.505Z,8.42
2023-06-19T09:17:08.177Z,8.62
2023-06-19T09:19:38.953Z,9.00
2023-06-19T09:22:07.976Z,9.59
2023-06-19T09:24:41.248Z,9.87
2023-06-19T09:27:10.554Z,10.08
2023-06-19T09:29:39.755Z,10.96
2023-06-19T09:32:18.855Z,11.81
2023-06-19T09:34:45.989Z,11.91
2023-06-19T09:37:13.035Z,12.54
2023-06-19T09:39:41.094Z,13.36
2023-06-19T09:42:08.634Z,14.08
2023-06-19T09:44:46.416Z,14.06
2023-06-19T09:47:18.526Z,15.08
2023-06-19T09:49:50.787Z,15.63
2023-06-19T09:52:18.366Z,15.88
2023-06-19T09:54:45.334Z,16.53
2023-06-19T09:57:12.170Z,17.05
2023-06-19T09:59:42.546Z,17.73
2023-06-19T10:02:10.660Z,17.80
2023-06-19T10:04:50.351Z,18.55
2023-06-19T10:07:22.149Z,18.78
2023-06-19T10:10:07.420Z,19.66
2023-06-19T10:12:45.463Z,20.00
2023-06-19T10:15:14.961Z,20.08
2023-06-19T10:17:47.818Z,20.69
2023-06-19T10:20:35.145Z,20.78
2023-06-19T10:23:06.488Z,20.39
2023-06-19T10:25:42.573Z,20.79
2023-06-19T10:28:23.758Z,21.54
2023-06-19T10:30:58.087Z,21.91
2023-06-19T10:33:27.283Z,21.84
2023-06-19T10:35:54.330Z,22.86
2023-06-19T10:38:21.181Z,22.50
2023-06-19T10:40:48.765Z,22.95
2023-06-19T10:43:24.163Z,23.70
2023-06-19T10:45:52.054Z,23.25
2023-06-19T10:48:23.674Z,23.63
2023-06-19T10:50:51.466Z,24.01
2023-06-19T10:53:26.028Z,24.10
2023-06-19T10:55:57.394Z,24.40
2023-06-19T10:58:24.586Z,24.36
2023-06-19T11:00:51.680Z,24.33
2023-06-19T11:03:20.414Z,24.68
2023-06-19T11:05:48.401Z,24.28
2023-06-19T11:08:20.165Z,23.76
2023-06-19T11:10:47.286Z,23.73
2023-06-19T11:13:20.515Z,23.44
2023-06-19T11:15:51.834Z,23.72
2023-06-19T11:18:20.057Z,24.11
2023-06-19T11:20:52.070Z,24.87
2023-06-19T11:23:27.970Z,24.70
2023-06-19T11:25:55.059Z,24.85
2023-06-19T11:28:24.721Z,25.18
2023-06-19T11:31:01.830Z,25.40
2023-06-19T11:33:31.748Z,24.61
2023-06-19T11:36:02.048Z,24.41
2023-06-19T11:38:31.533Z,24.82
2023-06-19T11:40:58.356Z,24.82
2023-06-19T11:43:30.002Z,24.66
2023-06-19T11:46:11.699Z,25.03
2023-06-19T11:48:39.100Z,24.78
2023-06-19T11:51:06.295Z,24.47
2023-06-19T11:53:33.215Z,24.28
2023-06-19T11:56:00.129Z,24.21
2023-06-19T11:58:26.902Z,24.46
2023-06-19T12:00:57.188Z,23.98
2023-06-19T12:03:24.190Z,23.73
2023-06-19T12:05:51.146Z,23.18
2023-06-19T12:08:17.919Z,23.47
2023-06-19T12:10:46.106Z,23.66
2023-06-19T12:13:13.165Z,23.73
2023-06-19T12:15:40.144Z,23.27
2023-06-19T12:18:08.472Z,23.49
2023-06-19T12:20:35.389Z,23.44
2023-06-19T12:23:02.244Z,23.43
2023-06-19T12:25:29.006Z,23.17
2023-06-19T12:27:56.001Z,23.01
2023-06-19T12:30:23.718Z,22.75
2023-06-19T12:32:51.943Z,23.30
2023-06-19T12:35:19.567Z,23.00
2023-06-19T12:37:46.973Z,23.21
2023-06-19T12:40:14.178Z,23.01
2023-06-19T12:42:41.229Z,23.37
2023-06-19T12:45:09.077Z,23.13
2023-06-19T12:47:35.896Z,23.93
2023-06-19T12:50:02.740Z,23.41
2023-06-19T12:52:29.609Z,23.03
2023-06-19T12:54:56.399Z,23.60
2023-06-19T12:57:23.215Z,23.45
2023-06-19T12:59:50.376Z,23.32
2023-06-19T13:02:17.153Z,23.56
2023-06-19T13:04:44.077Z,23.45
2023-06-19T13:07:11.011Z,22.68
2023-06-19T13:09:38.030Z,22.92
2023-06-19T13:12:05.167Z,23.10
2023-06-19T13:14:33.169Z,23.19
2023-06-19T13:17:01.137Z,22.62
2023-06-19T13:19:28.850Z,23.15
2023-06-19T13:21:56.161Z,23.11
2023-06-19T13:24:22.971Z,22.96
2023-06-19T13:26:49.934Z,23.13
2023-06-19T13:29:16.675Z,23.32
2023-06-19T13:31:45.993Z,23.52
2023-06-19T13:34:12.852Z,23.16
2023-06-19T13:36:41.035Z,23.41
2023-06-19T13:39:07.895Z,23.29
2023-06-19T13:41:35.705Z,23.30
2023-06-19T13:44:02.957Z,23.45
2023-06-19T13:46:32.932Z,23.22
2023-06-19T13:49:00.024Z,22.73
2023-06-19T13:51:26.917Z,23.38
2023-06-19T13:53:53.741Z,23.67
2023-06-19T13:56:20.644Z,23.30
2023-06-19T13:58:47.824Z,23.84
2023-06-19T14:01:15.813Z,23.79
2023-06-19T14:03:42.813Z,23.75
2023-06-19T14:06:10.812Z,23.93
2023-06-19T14:08:37.676Z,23.66
2023-06-19T14:11:04.764Z,24.11
2023-06-19T14:13:31.549Z,24.47
2023-06-19T14:15:58.644Z,24.46
2023-06-19T14:18:25.490Z,23.79
2023-06-19T14:20:52.538Z,23.77
2023-06-19T14:23:19.376Z,23.78
2023-06-19T14:25:46.175Z,23.51
2023-06-19T14:28:15.321Z,23.65
2023-06-19T14:30:42.040Z,23.68
2023-06-19T14:33:11.659Z,23.78
2023-06-19T14:35:38.433Z,24.20
2023-06-19T14:38:05.285Z,23.65
2023-06-19T14:40:32.095Z,24.17
2023-06-19T14:43:00.043Z,23.84
2023-06-19T14:45:26.890Z,24.43
2023-06-19T14:47:53.877Z,23.93
2023-06-19T14:50:21.137Z,24.34
2023-06-19T14:52:48.021Z,24.63
2023-06-19T14:55:14.773Z,24.12
2023-06-19T14:57:41.608Z,24.02
2023-06-19T15:00:09.091Z,24.35
2023-06-19T15:02:40.026Z,23.88
2023-06-19T15:05:09.338Z,23.72
2023-06-19T15:07:36.105Z,24.17
2023-06-19T15:10:03.276Z,23.52
2023-06-19T15:12:30.135Z,23.66
2023-06-19T15:14:56.885Z,23.45
2023-06-19T15:17:23.647Z,23.62
2023-06-19T15:19:51.550Z,23.61
2023-06-19T15:22:18.383Z,24.16
2023-06-19T15:24:45.172Z,23.57
2023-06-19T15:27:12.926Z,24.02
2023-06-19T15:29:40.080Z,23.68
2023-06-19T15:32:07.235Z,24.21
2023-06-19T15:34:34.505Z,24.32
2023-06-19T15:37:01.306Z,23.75
2023-06-19T15:39:28.710Z,24.53
2023-06-19T15:41:57.056Z,24.06
2023-06-19T15:44:23.783Z,24.48
2023-06-19T15:46:50.700Z,24.74
2023-06-19T15:49:18.844Z,24.75
2023-06-19T15:51:45.621Z,24.23
2023-06-19T15:54:12.743Z,24.58
2023-06-19T15:56:40.814Z,24.24
2023-06-19T15:59:07.628Z,24.50
2023-06-19T16:01:34.468Z,25.24
2023-06-19T16:04:02.005Z,24.93
2023-06-19T16:06:28.911Z,25.18
2023-06-19T16:08:57.845Z,25.21
2023-06-19T16:11:25.756Z,24.85
2023-06-19T16:13:53.353Z,25.09
2023-06-19T16:16:20.501Z,25.46
2023-06-19T16:18:47.380Z,25.05
2023-06-19T16:21:16.399Z,25.22
2023-06-19T16:23:44.276Z,25.22
2023-06-19T16:26:11.737Z,25.12
2023-06-19T16:28:38.824Z,25.22
2023-06-19T16:31:06.578Z,25.53
2023-06-19T16:33:33.393Z,25.21
2023-06-19T16:36:00.214Z,25.27
2023-06-19T16:38:27.726Z,25.48
2023-06-19T16:40:54.525Z,25.39
2023-06-19T16:43:21.431Z,25.68
2023-06-19T16:45:48.198Z,26.29
2023-06-19T16:48:15.026Z,26.00
2023-06-19T16:50:41.834Z,26.02
2023-06-19T16:53:08.666Z,26.14
2023-06-19T16:55:36.642Z,26.20
2023-06-19T16:58:04.585Z,26.25
2023-06-19T17:00:31.736Z,26.51
2023-06-19T17:02:59.671Z,26.44
2023-06-19T17:05:28.038Z,26.39
2023-06-19T17:07:54.979Z,26.63
2023-06-19T17:10:24.133Z,26.45
2023-06-19T17:12:51.317Z,26.30
2023-06-19T17:15:18.632Z,26.44
2023-06-19T17:17:45.546Z,26.88
2023-06-19T17:20:13.514Z,26.87
2023-06-19T17:22:40.519Z,26.57
2023-06-19T17:25:08.399Z,26.73
2023-06-19T17:27:35.512Z,27.01
2023-06-19T17:30:02.722Z,27.03
2023-06-19T17:32:30.056Z,27.38
2023-06-19T17:34:58.583Z,26.93
2023-06-19T17:37:26.925Z,27.24
2023-06-19T17:39:53.682Z,27.20
2023-06-19T17:42:21.098Z,27.33
2023-06-19T17:44:47.870Z,27.44
2023-06-19T17:47:15.854Z,27.27
2023-06-19T17:49:45.837Z,27.35
2023-06-19T17:52:12.809Z,27.57
2023-06-19T17:54:39.533Z,27.13
2023-06-19T17:57:06.552Z,26.97
2023-06-19T17:59:34.764Z,27.01
2023-06-19T18:02:01.838Z,26.82
2023-06-19T18:04:28.614Z,26.77
2023-06-19T18:06:55.433Z,26.99
2023-06-19T18:09:22.237Z,27.17
2023-06-19T18:11:49.019Z,27.07
2023-06-19T18:14:15.825Z,27.53
2023-06-19T18:16:44.068Z,27.47
2023-06-19T18:19:10.907Z,27.70
2023-06-19T18:21:37.719Z,28.09
2023-06-19T18:24:05.642Z,28.37
2023-06-19T18:26:32.447Z,28.11
2023-06-19T18:28:59.246Z,28.70
2023-06-19T18:31:26.134Z,28.81
2023-06-19T18:33:53.142Z,28.38
2023-06-19T18:36:20.054Z,28.97
2023-06-19T18:38:47.000Z,28.52
2023-06-19T18:41:16.053Z,29.00
2023-06-19T18:43:42.789Z,28.91
2023-06-19T18:46:09.568Z,28.97
2023-06-19T18:48:36.320Z,29.12
2023-06-19T18:51:03.047Z,29.71
2023-06-19T18:53:29.876Z,29.47
2023-06-19T18:55:57.016Z,30.16
2023-06-19T18:58:23.781Z,30.53
2023-06-19T19:00:50.547Z,30.30
2023-06-19T19:03:18.873Z,30.89
2023-06-19T19:05:46.693Z,31.03
2023-06-19T19:08:14.451Z,31.19
2023-06-19T19:10:41.664Z,30.87
2023-06-19T19:13:09.450Z,31.51
2023-06-19T19:15:37.508Z,31.47
2023-06-19T19:18:05.362Z,31.48
2023-06-19T19:20:32.177Z,31.61
2023-06-19T19:22:58.977Z,31.99
2023-06-19T19:25:25.943Z,31.58
2023-06-19T19:27:52.825Z,31.96
2023-06-19T19:30:19.701Z,32.15
2023-06-19T19:32:46.778Z,32.63
2023-06-19T19:35:13.574Z,32.33
2023-06-19T19:37:40.596Z,32.87
2023-06-19T19:40:07.950Z,32.81
2023-06-19T19:42:34.726Z,32.66
2023-06-19T19:45:05.481Z,32.83
2023-06-19T19:47:33.183Z,32.96
2023-06-19T19:50:00.028Z,33.82
2023-06-19T19:52:26.889Z,34.52
2023-06-19T19:54:54.285Z,34.41
2023-06-19T19:57:22.202Z,34.79
2023-06-19T19:59:48.943Z,34.55
2023-06-19T20:02:18.614Z,34.54
2023-06-19T20:04:48.230Z,34.87
2023-06-19T20:07:15.136Z,34.97
2023-06-19T20:09:44.901Z,35.23
2023-06-19T20:12:21.589Z,35.31
2023-06-19T20:14:49.105Z,35.84
2023-06-19T20:17:16.511Z,35.79
2023-06-19T20:19:43.378Z,36.17
2023-06-19T20:22:10.218Z,36.58
2023-06-19T20:24:39.317Z,36.71
2023-06-19T20:27:06.776Z,37.24
2023-06-19T20:29:34.162Z,37.24
2023-06-19T20:32:01.077Z,37.44
2023-06-19T20:34:29.551Z,37.79
2023-06-19T20:36:57.882Z,37.89
2023-06-19T20:39:24.837Z,37.92
2023-06-19T20:41:51.608Z,38.10
2023-06-19T20:44:18.920Z,38.50
2023-06-19T20:46:46.082Z,38.41
2023-06-19T20:49:12.830Z,38.79
2023-06-19T20:51:39.653Z,38.80
2023-06-19T20:54:06.427Z,38.81
2023-06-19T20:56:33.228Z,39.23
2023-06-19T20:59:00.032Z,39.42
2023-06-19T21:01:27.052Z,39.31
2023-06-19T21:03:53.841Z,40.03
2023-06-19T21:06:23.416Z,39.96
2023-06-19T21:08:50.186Z,40.03
2023-06-19T21:11:17.425Z,40.34
2023-06-19T21:13:44.265Z,40.13
2023-06-19T21:16:12.086Z,40.32
2023-06-19T21:18:39.239Z,40.53
2023-06-19T21:21:06.119Z,40.44
2023-06-19T21:23:32.939Z,40.76
2023-06-19T21:25:59.732Z,41.39
2023-06-19T21:28:26.522Z,41.29
2023-06-19T21:30:53.281Z,41.27
2023-06-19T21:33:22.276Z,41.45
2023-06-19T21:35:51.376Z,41.52
2023-06-19T21:38:18.312Z,41.65
2023-06-19T21:40:45.202Z,41.68
2023-06-19T21:43:11.979Z,41.66
2023-06-19T21:45:38.733Z,41.75
2023-06-19T21:48:05.850Z,42.03
2023-06-19T21:50:32.663Z,41.63
2023-06-19T21:52:59.431Z,41.93
2023-06-19T21:55:26.165Z,41.78
2023-06-19T21:58:00.033Z,41.96
2023-06-19T22:00:28.870Z,42.11
2023-06-19T22:02:57.519Z,41.94
2023-06-19T22:05:24.777Z,42.20
2023-06-19T22:07:51.517Z,42.22
2023-06-19T22:10:18.652Z,42.39
2023-06-19T22:12:45.755Z,42.56
2023-06-19T22:15:13.081Z,42.27
2023-06-19T22:17:46.400Z,42.21
2023-06-19T22:20:21.896Z,42.67
2023-06-19T22:22:49.181Z,42.84
2023-06-19T22:25:16.515Z,42.97
2023-06-19T22:27:45.819Z,42.86
2023-06-19T22:30:14.762Z,43.14
2023-06-19T22:32:42.142Z,43.21
2023-06-19T22:35:09.292Z,43.43
2023-06-19T22:37:36.362Z,43.41
2023-06-19T22:40:08.777Z,43.64
2023-06-19T22:42:39.199Z,43.54
2023-06-19T22:45:10.374Z,43.70
2023-06-19T22:47:40.013Z,43.74
2023-06-19T22:50:11.789Z,43.88
2023-06-19T22:52:39.262Z,43.86
2023-06-19T22:55:06.758Z,43.81
2023-06-19T22:57:36.070Z,44.13
2023-06-19T23:00:14.337Z,44.04
2023-06-19T23:02:45.549Z,44.14
2023-06-19T23:05:13.709Z,44.08
2023-06-19T23:07:42.305Z,44.10
2023-06-19T23:10:09.363Z,44.38
2023-06-19T23:12:36.885Z,44.03
2023-06-19T23:15:04.046Z,44.40
2023-06-19T23:17:30.803Z,44.37
2023-06-19T23:19:59.519Z,44.26
2023-06-19T23:22:27.077Z,44.70
2023-06-19T23:24:54.531Z,44.45
2023-06-19T23:27:21.465Z,44.56
2023-06-19T23:29:48.338Z,44.66
2023-06-19T23:32:15.056Z,44.68
2023-06-19T23:34:41.855Z,44.89
2023-06-19T23:37:08.640Z,44.61
2023-06-19T23:39:36.535Z,44.81
2023-06-19T23:42:04.238Z,45.01
2023-06-19T23:44:31.327Z,44.95
2023-06-19T23:46:58.160Z,45.08
2023-06-19T23:49:24.890Z,45.07
2023-06-19T23:51:51.754Z,44.93
2023-06-19T23:54:18.532Z,45.12
2023-06-19T23:56:46.340Z,45.29
2023-06-19T23:59:13.122Z,45.22
